sensor_id;sensor_type;location;lat;lon;timestamp;temperature;humidity
66670;DHT22;53568;52.164;4.472;2023-04-25T00:00:25;8.90;66.99
66670;DHT22;53568;52.164;4.472;2023-04-25T00:02:51;8.82;67.30
66670;DHT22;53568;52.164;4.472;2023-04-25T00:05:17;8.83;67.75
66670;DHT22;53568;52.164;4.472;2023-04-25T00:07:42;8.68;68.22
66670;DHT22;53568;52.164;4.472;2023-04-25T00:10:09;8.73;67.86
66670;DHT22;53568;52.164;4.472;2023-04-25T00:12:34;8.71;68.27
66670;DHT22;53568;52.164;4.472;2023-04-25T00:15:01;8.66;68.08
66670;DHT22;53568;52.164;4.472;2023-04-25T00:17:27;8.56;68.69
66670;DHT22;53568;52.164;4.472;2023-04-25T00:19:53;8.61;68.60
66670;DHT22;53568;52.164;4.472;2023-04-25T00:22:18;8.49;68.78
66670;DHT22;53568;52.164;4.472;2023-04-25T00:24:44;8.52;68.31
66670;DHT22;53568;52.164;4.472;2023-04-25T00:27:10;8.52;67.80
66670;DHT22;53568;52.164;4.472;2023-04-25T00:29:36;8.59;67.55
66670;DHT22;53568;52.164;4.472;2023-04-25T00:32:01;8.55;67.56
66670;DHT22;53568;52.164;4.472;2023-04-25T00:34:27;8.61;66.85
66670;DHT22;53568;52.164;4.472;2023-04-25T00:36:53;8.58;65.71
66670;DHT22;53568;52.164;4.472;2023-04-25T00:39:18;8.61;64.86
66670;DHT22;53568;52.164;4.472;2023-04-25T00:41:45;8.52;63.10
66670;DHT22;53568;52.164;4.472;2023-04-25T00:44:11;8.48;63.39
66670;DHT22;53568;52.164;4.472;2023-04-25T00:46:39;8.51;62.87
66670;DHT22;53568;52.164;4.472;2023-04-25T00:49:05;8.48;63.25
66670;DHT22;53568;52.164;4.472;2023-04-25T00:51:32;8.59;62.60
66670;DHT22;53568;52.164;4.472;2023-04-25T00:53:58;8.59;62.26
66670;DHT22;53568;52.164;4.472;2023-04-25T00:56:25;8.53;62.26
66670;DHT22;53568;52.164;4.472;2023-04-25T00:58:53;8.71;61.58
66670;DHT22;53568;52.164;4.472;2023-04-25T01:01:22;8.52;60.96
66670;DHT22;53568;52.164;4.472;2023-04-25T01:03:49;8.49;61.44
66670;DHT22;53568;52.164;4.472;2023-04-25T01:06:16;8.51;61.75
66670;DHT22;53568;52.164;4.472;2023-04-25T01:08:42;8.59;61.96
66670;DHT22;53568;52.164;4.472;2023-04-25T01:11:08;8.66;61.99
66670;DHT22;53568;52.164;4.472;2023-04-25T01:13:34;8.65;62.45
66670;DHT22;53568;52.164;4.472;2023-04-25T01:16:01;8.72;62.60
66670;DHT22;53568;52.164;4.472;2023-04-25T01:18:27;8.69;63.20
66670;DHT22;53568;52.164;4.472;2023-04-25T01:20:53;8.56;64.21
66670;DHT22;53568;52.164;4.472;2023-04-25T01:23:21;8.52;64.41
66670;DHT22;53568;52.164;4.472;2023-04-25T01:25:47;8.52;64.41
66670;DHT22;53568;52.164;4.472;2023-04-25T01:28:13;8.59;64.37
66670;DHT22;53568;52.164;4.472;2023-04-25T01:30:40;8.51;64.22
66670;DHT22;53568;52.164;4.472;2023-04-25T01:33:07;8.48;63.97
66670;DHT22;53568;52.164;4.472;2023-04-25T01:35:33;8.52;63.68
66670;DHT22;53568;52.164;4.472;2023-04-25T01:38:00;8.55;63.87
66670;DHT22;53568;52.164;4.472;2023-04-25T01:40:27;8.53;64.31
66670;DHT22;53568;52.164;4.472;2023-04-25T01:42:53;8.68;64.03
66670;DHT22;53568;52.164;4.472;2023-04-25T01:45:20;8.61;64.67
66670;DHT22;53568;52.164;4.472;2023-04-25T01:47:46;8.69;64.08
66670;DHT22;53568;52.164;4.472;2023-04-25T01:50:15;8.58;64.73
66670;DHT22;53568;52.164;4.472;2023-04-25T01:52:41;8.52;64.94
66670;DHT22;53568;52.164;4.472;2023-04-25T01:55:07;8.49;65.54
66670;DHT22;53568;52.164;4.472;2023-04-25T01:57:32;8.49;65.90
66670;DHT22;53568;52.164;4.472;2023-04-25T02:00:00;8.59;65.86
66670;DHT22;53568;52.164;4.472;2023-04-25T02:02:26;8.66;65.86
66670;DHT22;53568;52.164;4.472;2023-04-25T02:04:52;8.62;65.71
66670;DHT22;53568;52.164;4.472;2023-04-25T02:07:19;8.55;64.13
66670;DHT22;53568;52.164;4.472;2023-04-25T02:09:44;8.59;63.16
66670;DHT22;53568;52.164;4.472;2023-04-25T02:12:10;8.52;63.40
66670;DHT22;53568;52.164;4.472;2023-04-25T02:14:36;8.69;62.67
66670;DHT22;53568;52.164;4.472;2023-04-25T02:17:02;8.75;61.38
66670;DHT22;53568;52.164;4.472;2023-04-25T02:19:27;8.58;61.22
66670;DHT22;53568;52.164;4.472;2023-04-25T02:21:53;8.56;61.78
66670;DHT22;53568;52.164;4.472;2023-04-25T02:24:19;8.58;61.83
66670;DHT22;53568;52.164;4.472;2023-04-25T02:26:45;8.56;62.41
66670;DHT22;53568;52.164;4.472;2023-04-25T02:29:12;8.65;62.38
66670;DHT22;53568;52.164;4.472;2023-04-25T02:31:37;8.68;62.47
66670;DHT22;53568;52.164;4.472;2023-04-25T02:34:03;8.59;63.08
66670;DHT22;53568;52.164;4.472;2023-04-25T02:36:29;8.68;62.83
66670;DHT22;53568;52.164;4.472;2023-04-25T02:38:57;8.68;62.95
66670;DHT22;53568;52.164;4.472;2023-04-25T02:41:23;8.71;63.01
66670;DHT22;53568;52.164;4.472;2023-04-25T02:43:48;8.73;63.22
66670;DHT22;53568;52.164;4.472;2023-04-25T02:46:14;8.71;62.95
66670;DHT22;53568;52.164;4.472;2023-04-25T02:48:39;8.82;63.13
66670;DHT22;53568;52.164;4.472;2023-04-25T02:51:05;8.79;63.57
66670;DHT22;53568;52.164;4.472;2023-04-25T02:53:30;8.66;64.24
66670;DHT22;53568;52.164;4.472;2023-04-25T02:55:56;8.53;67.71
66670;DHT22;53568;52.164;4.472;2023-04-25T02:58:23;8.42;69.72
66670;DHT22;53568;52.164;4.472;2023-04-25T03:00:49;8.41;70.32
66670;DHT22;53568;52.164;4.472;2023-04-25T03:03:14;8.42;70.76
66670;DHT22;53568;52.164;4.472;2023-04-25T03:05:43;8.32;71.49
66670;DHT22;53568;52.164;4.472;2023-04-25T03:08:08;8.25;72.32
66670;DHT22;53568;52.164;4.472;2023-04-25T03:10:34;8.25;72.45
66670;DHT22;53568;52.164;4.472;2023-04-25T03:13:00;8.21;72.51
66670;DHT22;53568;52.164;4.472;2023-04-25T03:15:25;8.18;72.75
66670;DHT22;53568;52.164;4.472;2023-04-25T03:17:51;8.02;72.80
66670;DHT22;53568;52.164;4.472;2023-04-25T03:20:16;7.97;72.88
66670;DHT22;53568;52.164;4.472;2023-04-25T03:22:42;7.99;72.67
66670;DHT22;53568;52.164;4.472;2023-04-25T03:25:07;7.98;71.32
66670;DHT22;53568;52.164;4.472;2023-04-25T03:27:33;7.98;70.84
66670;DHT22;53568;52.164;4.472;2023-04-25T03:29:59;8.05;69.86
66670;DHT22;53568;52.164;4.472;2023-04-25T03:32:24;8.14;68.86
66670;DHT22;53568;52.164;4.472;2023-04-25T03:34:50;8.18;66.80
66670;DHT22;53568;52.164;4.472;2023-04-25T03:37:16;8.27;65.95
66670;DHT22;53568;52.164;4.472;2023-04-25T03:39:41;8.28;65.45
66670;DHT22;53568;52.164;4.472;2023-04-25T03:42:07;8.21;65.53
66670;DHT22;53568;52.164;4.472;2023-04-25T03:44:32;8.18;65.58
66670;DHT22;53568;52.164;4.472;2023-04-25T03:46:58;8.24;65.12
66670;DHT22;53568;52.164;4.472;2023-04-25T03:49:24;8.35;65.03
66670;DHT22;53568;52.164;4.472;2023-04-25T03:51:50;8.44;64.99
66670;DHT22;53568;52.164;4.472;2023-04-25T03:54:15;8.49;64.83
66670;DHT22;53568;52.164;4.472;2023-04-25T03:56:41;8.49;65.09
66670;DHT22;53568;52.164;4.472;2023-04-25T03:59:06;8.65;64.91
66670;DHT22;53568;52.164;4.472;2023-04-25T04:01:33;8.65;65.06
66670;DHT22;53568;52.164;4.472;2023-04-25T04:03:58;8.63;65.41
66670;DHT22;53568;52.164;4.472;2023-04-25T04:06:24;8.73;65.39
66670;DHT22;53568;52.164;4.472;2023-04-25T04:08:49;8.63;65.98
66670;DHT22;53568;52.164;4.472;2023-04-25T04:11:15;8.58;66.40
66670;DHT22;53568;52.164;4.472;2023-04-25T04:13:40;8.49;66.86
66670;DHT22;53568;52.164;4.472;2023-04-25T04:16:06;8.20;67.94
66670;DHT22;53568;52.164;4.472;2023-04-25T04:18:31;7.81;69.09
66670;DHT22;53568;52.164;4.472;2023-04-25T04:20:59;7.85;69.39
66670;DHT22;53568;52.164;4.472;2023-04-25T04:23:24;7.73;69.80
66670;DHT22;53568;52.164;4.472;2023-04-25T04:25:52;7.73;69.53
66670;DHT22;53568;52.164;4.472;2023-04-25T04:28:19;7.67;70.04
66670;DHT22;53568;52.164;4.472;2023-04-25T04:30:45;7.75;69.96
66670;DHT22;53568;52.164;4.472;2023-04-25T04:33:11;7.80;69.71
66670;DHT22;53568;52.164;4.472;2023-04-25T04:35:37;7.95;69.59
66670;DHT22;53568;52.164;4.472;2023-04-25T04:38:03;8.02;69.38
66670;DHT22;53568;52.164;4.472;2023-04-25T04:40:29;8.04;69.43
66670;DHT22;53568;52.164;4.472;2023-04-25T04:42:56;8.08;69.10
66670;DHT22;53568;52.164;4.472;2023-04-25T04:45:23;7.97;68.99
66670;DHT22;53568;52.164;4.472;2023-04-25T04:47:49;8.01;69.18
66670;DHT22;53568;52.164;4.472;2023-04-25T04:50:15;8.05;68.88
66670;DHT22;53568;52.164;4.472;2023-04-25T04:52:41;7.97;68.71
66670;DHT22;53568;52.164;4.472;2023-04-25T04:55:08;8.12;68.40
66670;DHT22;53568;52.164;4.472;2023-04-25T04:57:35;8.17;68.37
66670;DHT22;53568;52.164;4.472;2023-04-25T05:00:00;7.98;68.40
66670;DHT22;53568;52.164;4.472;2023-04-25T05:02:26;7.80;68.74
66670;DHT22;53568;52.164;4.472;2023-04-25T05:04:52;7.61;68.43
66670;DHT22;53568;52.164;4.472;2023-04-25T05:07:18;7.60;67.98
66670;DHT22;53568;52.164;4.472;2023-04-25T05:09:44;7.37;66.74
66670;DHT22;53568;52.164;4.472;2023-04-25T05:12:10;7.26;67.29
66670;DHT22;53568;52.164;4.472;2023-04-25T05:14:36;7.24;66.59
66670;DHT22;53568;52.164;4.472;2023-04-25T05:17:01;7.36;66.21
66670;DHT22;53568;52.164;4.472;2023-04-25T05:19:30;7.27;66.05
66670;DHT22;53568;52.164;4.472;2023-04-25T05:21:55;7.19;66.04
66670;DHT22;53568;52.164;4.472;2023-04-25T05:24:21;7.09;66.07
66670;DHT22;53568;52.164;4.472;2023-04-25T05:26:46;7.07;66.39
66670;DHT22;53568;52.164;4.472;2023-04-25T05:29:12;7.19;67.68
66670;DHT22;53568;52.164;4.472;2023-04-25T05:31:37;7.27;67.54
66670;DHT22;53568;52.164;4.472;2023-04-25T05:34:03;7.05;69.34
66670;DHT22;53568;52.164;4.472;2023-04-25T05:36:28;7.03;70.95
66670;DHT22;53568;52.164;4.472;2023-04-25T05:38:54;6.95;72.39
66670;DHT22;53568;52.164;4.472;2023-04-25T05:41:20;6.99;73.15
66670;DHT22;53568;52.164;4.472;2023-04-25T05:43:45;7.19;73.36
66670;DHT22;53568;52.164;4.472;2023-04-25T05:46:13;7.33;73.17
66670;DHT22;53568;52.164;4.472;2023-04-25T05:48:39;7.30;72.93
66670;DHT22;53568;52.164;4.472;2023-04-25T05:51:05;7.26;73.04
66670;DHT22;53568;52.164;4.472;2023-04-25T05:53:31;7.36;73.03
66670;DHT22;53568;52.164;4.472;2023-04-25T05:55:56;7.54;73.19
66670;DHT22;53568;52.164;4.472;2023-04-25T05:58:22;7.73;73.20
66670;DHT22;53568;52.164;4.472;2023-04-25T06:00:48;7.91;73.01
66670;DHT22;53568;52.164;4.472;2023-04-25T06:03:13;8.02;72.76
66670;DHT22;53568;52.164;4.472;2023-04-25T06:05:42;8.21;72.50
66670;DHT22;53568;52.164;4.472;2023-04-25T06:08:08;8.25;71.91
66670;DHT22;53568;52.164;4.472;2023-04-25T06:10:35;8.32;71.23
66670;DHT22;53568;52.164;4.472;2023-04-25T06:13:01;8.39;70.57
66670;DHT22;53568;52.164;4.472;2023-04-25T06:15:26;8.44;69.86
66670;DHT22;53568;52.164;4.472;2023-04-25T06:17:52;8.32;70.00
66670;DHT22;53568;52.164;4.472;2023-04-25T06:20:17;8.28;70.31
66670;DHT22;53568;52.164;4.472;2023-04-25T06:22:43;8.45;69.06
66670;DHT22;53568;52.164;4.472;2023-04-25T06:25:09;8.48;69.51
66670;DHT22;53568;52.164;4.472;2023-04-25T06:27:34;8.56;68.86
66670;DHT22;53568;52.164;4.472;2023-04-25T06:30:00;8.65;68.69
66670;DHT22;53568;52.164;4.472;2023-04-25T06:32:25;8.66;67.88
66670;DHT22;53568;52.164;4.472;2023-04-25T06:34:53;8.68;66.14
66670;DHT22;53568;52.164;4.472;2023-04-25T06:37:18;8.75;65.13
66670;DHT22;53568;52.164;4.472;2023-04-25T06:39:44;8.66;65.17
66670;DHT22;53568;52.164;4.472;2023-04-25T06:42:09;8.49;65.20
66670;DHT22;53568;52.164;4.472;2023-04-25T06:44:35;8.55;64.42
66670;DHT22;53568;52.164;4.472;2023-04-25T06:47:01;8.68;64.63
66670;DHT22;53568;52.164;4.472;2023-04-25T06:49:26;8.65;65.66
66670;DHT22;53568;52.164;4.472;2023-04-25T06:51:52;8.66;65.79
66670;DHT22;53568;52.164;4.472;2023-04-25T06:54:17;8.75;65.75
66670;DHT22;53568;52.164;4.472;2023-04-25T06:56:43;8.73;66.61
66670;DHT22;53568;52.164;4.472;2023-04-25T06:59:08;8.65;65.39
66670;DHT22;53568;52.164;4.472;2023-04-25T07:01:34;8.59;64.24
66670;DHT22;53568;52.164;4.472;2023-04-25T07:04:00;8.62;62.71
66670;DHT22;53568;52.164;4.472;2023-04-25T07:06:26;8.69;62.59
66670;DHT22;53568;52.164;4.472;2023-04-25T07:08:53;8.77;61.58
66670;DHT22;53568;52.164;4.472;2023-04-25T07:11:19;8.69;59.16
66670;DHT22;53568;52.164;4.472;2023-04-25T07:13:45;8.69;59.56
66670;DHT22;53568;52.164;4.472;2023-04-25T07:16:10;8.82;59.19
66670;DHT22;53568;52.164;4.472;2023-04-25T07:18:36;8.80;58.24
66670;DHT22;53568;52.164;4.472;2023-04-25T07:21:01;8.75;58.13
66670;DHT22;53568;52.164;4.472;2023-04-25T07:23:27;8.59;58.36
66670;DHT22;53568;52.164;4.472;2023-04-25T07:25:52;8.73;58.55
66670;DHT22;53568;52.164;4.472;2023-04-25T07:28:18;8.82;59.40
66670;DHT22;53568;52.164;4.472;2023-04-25T07:30:44;8.99;59.29
66670;DHT22;53568;52.164;4.472;2023-04-25T07:33:09;8.99;57.87
66670;DHT22;53568;52.164;4.472;2023-04-25T07:35:35;9.06;57.58
66670;DHT22;53568;52.164;4.472;2023-04-25T07:38:02;8.96;56.50
66670;DHT22;53568;52.164;4.472;2023-04-25T07:40:27;9.05;58.04
66670;DHT22;53568;52.164;4.472;2023-04-25T07:42:52;9.17;59.81
66670;DHT22;53568;52.164;4.472;2023-04-25T07:45:18;9.23;58.45
66670;DHT22;53568;52.164;4.472;2023-04-25T07:47:44;9.23;58.95
66670;DHT22;53568;52.164;4.472;2023-04-25T07:50:10;9.28;59.79
66670;DHT22;53568;52.164;4.472;2023-04-25T07:52:36;9.36;59.06
66670;DHT22;53568;52.164;4.472;2023-04-25T07:55:01;9.40;60.04
66670;DHT22;53568;52.164;4.472;2023-04-25T07:57:27;9.37;59.02
66670;DHT22;53568;52.164;4.472;2023-04-25T07:59:52;9.23;58.60
66670;DHT22;53568;52.164;4.472;2023-04-25T08:02:18;9.13;59.01
66670;DHT22;53568;52.164;4.472;2023-04-25T08:04:43;9.26;59.71
66670;DHT22;53568;52.164;4.472;2023-04-25T08:07:09;9.34;59.30
66670;DHT22;53568;52.164;4.472;2023-04-25T08:09:35;9.33;60.45
66670;DHT22;53568;52.164;4.472;2023-04-25T08:12:02;8.96;59.52
66670;DHT22;53568;52.164;4.472;2023-04-25T08:14:29;8.49;60.99
66670;DHT22;53568;52.164;4.472;2023-04-25T08:17:02;8.44;60.16
66670;DHT22;53568;52.164;4.472;2023-04-25T08:19:29;8.58;59.92
66670;DHT22;53568;52.164;4.472;2023-04-25T08:21:55;8.79;58.86
66670;DHT22;53568;52.164;4.472;2023-04-25T08:24:22;8.79;57.99
66670;DHT22;53568;52.164;4.472;2023-04-25T08:26:48;8.82;56.30
66670;DHT22;53568;52.164;4.472;2023-04-25T08:29:13;8.71;56.61
66670;DHT22;53568;52.164;4.472;2023-04-25T08:31:39;8.83;58.43
66670;DHT22;53568;52.164;4.472;2023-04-25T08:34:04;9.07;58.42
66670;DHT22;53568;52.164;4.472;2023-04-25T08:36:30;9.05;58.94
66670;DHT22;53568;52.164;4.472;2023-04-25T08:38:57;8.90;58.68
66670;DHT22;53568;52.164;4.472;2023-04-25T08:41:24;8.97;56.95
66670;DHT22;53568;52.164;4.472;2023-04-25T08:43:51;9.07;56.46
66670;DHT22;53568;52.164;4.472;2023-04-25T08:46:20;9.17;56.82
66670;DHT22;53568;52.164;4.472;2023-04-25T08:48:46;9.20;58.14
66670;DHT22;53568;52.164;4.472;2023-04-25T08:51:22;9.20;57.89
66670;DHT22;53568;52.164;4.472;2023-04-25T08:53:52;9.09;57.40
66670;DHT22;53568;52.164;4.472;2023-04-25T08:56:18;8.76;58.93
66670;DHT22;53568;52.164;4.472;2023-04-25T08:58:48;8.82;59.91
66670;DHT22;53568;52.164;4.472;2023-04-25T09:01:15;9.03;59.74
66670;DHT22;53568;52.164;4.472;2023-04-25T09:03:41;9.00;59.91
66670;DHT22;53568;52.164;4.472;2023-04-25T09:06:09;9.10;60.64
66670;DHT22;53568;52.164;4.472;2023-04-25T09:08:36;9.34;60.89
66670;DHT22;53568;52.164;4.472;2023-04-25T09:11:02;9.07;63.87
66670;DHT22;53568;52.164;4.472;2023-04-25T09:13:28;8.80;65.66
66670;DHT22;53568;52.164;4.472;2023-04-25T09:15:56;8.62;67.39
66670;DHT22;53568;52.164;4.472;2023-04-25T09:18:24;8.75;67.83
66670;DHT22;53568;52.164;4.472;2023-04-25T09:20:52;8.72;66.45
66670;DHT22;53568;52.164;4.472;2023-04-25T09:23:19;8.58;66.60
66670;DHT22;53568;52.164;4.472;2023-04-25T09:25:51;8.42;67.13
66670;DHT22;53568;52.164;4.472;2023-04-25T09:28:23;8.53;67.10
66670;DHT22;53568;52.164;4.472;2023-04-25T09:30:55;8.76;65.21
66670;DHT22;53568;52.164;4.472;2023-04-25T09:33:28;8.77;64.40
66670;DHT22;53568;52.164;4.472;2023-04-25T09:38:31;9.13;63.14
66670;DHT22;53568;52.164;4.472;2023-04-25T09:40:57;9.17;63.44
66670;DHT22;53568;52.164;4.472;2023-04-25T09:43:24;9.30;62.70
66670;DHT22;53568;52.164;4.472;2023-04-25T09:45:53;9.19;62.19
66670;DHT22;53568;52.164;4.472;2023-04-25T09:48:20;9.19;62.93
66670;DHT22;53568;52.164;4.472;2023-04-25T09:51:09;9.26;62.55
66670;DHT22;53568;52.164;4.472;2023-04-25T09:53:37;9.20;63.71
66670;DHT22;53568;52.164;4.472;2023-04-25T09:56:06;9.20;60.47
66670;DHT22;53568;52.164;4.472;2023-04-25T09:58:32;9.24;60.36
66670;DHT22;53568;52.164;4.472;2023-04-25T10:01:01;9.34;58.53
66670;DHT22;53568;52.164;4.472;2023-04-25T10:03:30;9.37;55.53
66670;DHT22;53568;52.164;4.472;2023-04-25T10:05:58;9.58;55.15
66670;DHT22;53568;52.164;4.472;2023-04-25T10:08:30;9.51;56.07
66670;DHT22;53568;52.164;4.472;2023-04-25T10:11:00;9.71;57.75
66670;DHT22;53568;52.164;4.472;2023-04-25T10:13:28;9.88;58.51
66670;DHT22;53568;52.164;4.472;2023-04-25T10:15:55;9.98;57.47
66670;DHT22;53568;52.164;4.472;2023-04-25T10:18:21;9.94;54.55
66670;DHT22;53568;52.164;4.472;2023-04-25T10:20:48;9.74;57.82
66670;DHT22;53568;52.164;4.472;2023-04-25T10:23:14;9.77;56.20
66670;DHT22;53568;52.164;4.472;2023-04-25T10:25:41;9.75;55.02
66670;DHT22;53568;52.164;4.472;2023-04-25T10:28:07;9.60;55.67
66670;DHT22;53568;52.164;4.472;2023-04-25T10:30:32;9.58;54.69
66670;DHT22;53568;52.164;4.472;2023-04-25T10:32:59;9.57;56.18
66670;DHT22;53568;52.164;4.472;2023-04-25T10:35:29;9.50;56.94
66670;DHT22;53568;52.164;4.472;2023-04-25T10:38:11;9.40;57.42
66670;DHT22;53568;52.164;4.472;2023-04-25T10:40:39;9.38;56.38
66670;DHT22;53568;52.164;4.472;2023-04-25T10:43:42;9.50;55.41
66670;DHT22;53568;52.164;4.472;2023-04-25T10:46:17;9.58;55.87
66670;DHT22;53568;52.164;4.472;2023-04-25T10:48:52;9.61;56.05
66670;DHT22;53568;52.164;4.472;2023-04-25T10:51:26;9.75;56.54
66670;DHT22;53568;52.164;4.472;2023-04-25T10:56:30;9.80;55.64
66670;DHT22;53568;52.164;4.472;2023-04-25T10:59:26;9.73;56.77
66670;DHT22;53568;52.164;4.472;2023-04-25T11:01:53;9.90;58.21
66670;DHT22;53568;52.164;4.472;2023-04-25T11:04:32;9.87;58.59
66670;DHT22;53568;52.164;4.472;2023-04-25T11:07:18;10.02;57.85
66670;DHT22;53568;52.164;4.472;2023-04-25T11:09:49;9.99;58.07
66670;DHT22;53568;52.164;4.472;2023-04-25T11:12:15;10.11;56.53
66670;DHT22;53568;52.164;4.472;2023-04-25T11:14:42;9.84;55.86
66670;DHT22;53568;52.164;4.472;2023-04-25T11:17:07;9.74;57.18
66670;DHT22;53568;52.164;4.472;2023-04-25T11:19:34;9.81;57.71
66670;DHT22;53568;52.164;4.472;2023-04-25T11:22:01;9.88;56.18
66670;DHT22;53568;52.164;4.472;2023-04-25T11:24:32;9.88;55.21
66670;DHT22;53568;52.164;4.472;2023-04-25T11:27:04;9.90;53.84
66670;DHT22;53568;52.164;4.472;2023-04-25T11:29:32;9.95;54.40
66670;DHT22;53568;52.164;4.472;2023-04-25T11:31:59;9.91;53.94
66670;DHT22;53568;52.164;4.472;2023-04-25T11:34:27;9.75;54.09
66670;DHT22;53568;52.164;4.472;2023-04-25T11:36:53;9.54;55.22
66670;DHT22;53568;52.164;4.472;2023-04-25T11:39:19;9.65;55.19
66670;DHT22;53568;52.164;4.472;2023-04-25T11:41:46;9.69;53.48
66670;DHT22;53568;52.164;4.472;2023-04-25T11:44:11;9.80;54.63
66670;DHT22;53568;52.164;4.472;2023-04-25T11:46:40;9.84;53.23
66670;DHT22;53568;52.164;4.472;2023-04-25T11:49:05;9.91;53.27
66670;DHT22;53568;52.164;4.472;2023-04-25T11:51:41;10.02;53.08
66670;DHT22;53568;52.164;4.472;2023-04-25T11:54:06;9.88;52.38
66670;DHT22;53568;52.164;4.472;2023-04-25T11:56:33;9.99;53.33
66670;DHT22;53568;52.164;4.472;2023-04-25T11:59:01;10.06;54.38
66670;DHT22;53568;52.164;4.472;2023-04-25T12:01:35;10.15;54.88
66670;DHT22;53568;52.164;4.472;2023-04-25T12:04:21;10.06;54.55
66670;DHT22;53568;52.164;4.472;2023-04-25T12:06:51;10.22;53.25
66670;DHT22;53568;52.164;4.472;2023-04-25T12:09:19;10.26;55.54
66670;DHT22;53568;52.164;4.472;2023-04-25T12:11:49;10.16;58.57
66670;DHT22;53568;52.164;4.472;2023-04-25T12:14:27;10.04;58.78
66670;DHT22;53568;52.164;4.472;2023-04-25T12:16:55;9.54;60.77
66670;DHT22;53568;52.164;4.472;2023-04-25T12:19:23;9.33;61.58
66670;DHT22;53568;52.164;4.472;2023-04-25T12:21:49;9.44;59.06
66670;DHT22;53568;52.164;4.472;2023-04-25T12:24:18;9.58;55.11
66670;DHT22;53568;52.164;4.472;2023-04-25T12:29:19;9.77;52.73
66670;DHT22;53568;52.164;4.472;2023-04-25T12:31:45;9.84;52.62
66670;DHT22;53568;52.164;4.472;2023-04-25T12:34:11;9.87;53.23
66670;DHT22;53568;52.164;4.472;2023-04-25T12:36:37;10.04;53.57
66670;DHT22;53568;52.164;4.472;2023-04-25T12:39:03;10.18;54.61
66670;DHT22;53568;52.164;4.472;2023-04-25T12:41:30;10.25;54.41
66670;DHT22;53568;52.164;4.472;2023-04-25T12:43:56;9.94;55.25
66670;DHT22;53568;52.164;4.472;2023-04-25T12:46:21;9.97;56.03
66670;DHT22;53568;52.164;4.472;2023-04-25T12:48:48;10.05;56.77
66670;DHT22;53568;52.164;4.472;2023-04-25T12:51:14;10.28;57.41
66670;DHT22;53568;52.164;4.472;2023-04-25T12:53:40;9.97;59.42
66670;DHT22;53568;52.164;4.472;2023-04-25T12:56:09;9.71;59.47
66670;DHT22;53568;52.164;4.472;2023-04-25T12:58:35;9.75;60.71
66670;DHT22;53568;52.164;4.472;2023-04-25T13:01:01;9.47;61.75
66670;DHT22;53568;52.164;4.472;2023-04-25T13:03:26;9.37;62.79
66670;DHT22;53568;52.164;4.472;2023-04-25T13:05:52;9.50;61.56
66670;DHT22;53568;52.164;4.472;2023-04-25T13:08:21;9.26;60.77
66670;DHT22;53568;52.164;4.472;2023-04-25T13:10:49;9.34;59.50
66670;DHT22;53568;52.164;4.472;2023-04-25T13:13:15;9.26;59.47
66670;DHT22;53568;52.164;4.472;2023-04-25T13:15:41;9.54;58.51
66670;DHT22;53568;52.164;4.472;2023-04-25T13:18:07;9.73;57.77
66670;DHT22;53568;52.164;4.472;2023-04-25T13:20:33;9.97;55.71
66670;DHT22;53568;52.164;4.472;2023-04-25T13:22:58;9.99;53.19
66670;DHT22;53568;52.164;4.472;2023-04-25T13:25:24;10.01;55.49
66670;DHT22;53568;52.164;4.472;2023-04-25T13:27:50;9.82;55.18
66670;DHT22;53568;52.164;4.472;2023-04-25T13:30:15;9.67;56.56
66670;DHT22;53568;52.164;4.472;2023-04-25T13:32:41;9.94;55.90
66670;DHT22;53568;52.164;4.472;2023-04-25T13:35:12;10.09;54.82
66670;DHT22;53568;52.164;4.472;2023-04-25T13:37:39;9.78;53.67
66670;DHT22;53568;52.164;4.472;2023-04-25T13:40:08;9.90;52.44
66670;DHT22;53568;52.164;4.472;2023-04-25T13:42:36;9.84;52.93
66670;DHT22;53568;52.164;4.472;2023-04-25T13:45:02;9.87;52.46
66670;DHT22;53568;52.164;4.472;2023-04-25T13:47:29;9.75;52.15
66670;DHT22;53568;52.164;4.472;2023-04-25T13:49:55;9.61;53.80
66670;DHT22;53568;52.164;4.472;2023-04-25T13:52:21;9.62;56.30
66670;DHT22;53568;52.164;4.472;2023-04-25T13:54:46;9.60;55.19
66670;DHT22;53568;52.164;4.472;2023-04-25T13:57:12;9.50;57.59
66670;DHT22;53568;52.164;4.472;2023-04-25T13:59:39;9.46;58.55
66670;DHT22;53568;52.164;4.472;2023-04-25T14:02:06;9.65;56.73
66670;DHT22;53568;52.164;4.472;2023-04-25T14:04:31;9.44;56.11
66670;DHT22;53568;52.164;4.472;2023-04-25T14:06:58;9.41;58.30
66670;DHT22;53568;52.164;4.472;2023-04-25T14:09:23;9.24;55.85
66670;DHT22;53568;52.164;4.472;2023-04-25T14:11:54;9.33;57.07
66670;DHT22;53568;52.164;4.472;2023-04-25T14:14:21;9.46;57.21
66670;DHT22;53568;52.164;4.472;2023-04-25T14:16:48;9.65;56.54
66670;DHT22;53568;52.164;4.472;2023-04-25T14:19:15;9.82;55.81
66670;DHT22;53568;52.164;4.472;2023-04-25T14:21:40;9.70;55.85
66670;DHT22;53568;52.164;4.472;2023-04-25T14:24:06;9.61;56.46
66670;DHT22;53568;52.164;4.472;2023-04-25T14:26:35;9.50;56.82
66670;DHT22;53568;52.164;4.472;2023-04-25T14:29:01;9.64;57.25
66670;DHT22;53568;52.164;4.472;2023-04-25T14:31:26;9.90;56.70
66670;DHT22;53568;52.164;4.472;2023-04-25T14:33:53;9.99;55.84
66670;DHT22;53568;52.164;4.472;2023-04-25T14:36:18;9.95;56.17
66670;DHT22;53568;52.164;4.472;2023-04-25T14:38:44;9.64;57.92
66670;DHT22;53568;52.164;4.472;2023-04-25T14:41:10;9.52;58.43
66670;DHT22;53568;52.164;4.472;2023-04-25T14:43:36;9.57;57.25
66670;DHT22;53568;52.164;4.472;2023-04-25T14:46:02;9.58;56.86
66670;DHT22;53568;52.164;4.472;2023-04-25T14:48:29;9.64;56.07
66670;DHT22;53568;52.164;4.472;2023-04-25T14:50:55;9.69;55.22
66670;DHT22;53568;52.164;4.472;2023-04-25T14:53:23;9.80;55.57
66670;DHT22;53568;52.164;4.472;2023-04-25T14:55:48;9.91;55.37
66670;DHT22;53568;52.164;4.472;2023-04-25T14:58:14;10.04;55.82
66670;DHT22;53568;52.164;4.472;2023-04-25T15:00:40;10.26;55.25
66670;DHT22;53568;52.164;4.472;2023-04-25T15:03:06;10.35;54.00
66670;DHT22;53568;52.164;4.472;2023-04-25T15:05:33;10.41;55.14
66670;DHT22;53568;52.164;4.472;2023-04-25T15:07:59;10.15;53.95
66670;DHT22;53568;52.164;4.472;2023-04-25T15:10:25;9.85;53.94
66670;DHT22;53568;52.164;4.472;2023-04-25T15:12:51;9.81;53.55
66670;DHT22;53568;52.164;4.472;2023-04-25T15:15:18;9.84;53.69
66670;DHT22;53568;52.164;4.472;2023-04-25T15:17:44;9.94;54.01
66670;DHT22;53568;52.164;4.472;2023-04-25T15:20:12;9.87;55.50
66670;DHT22;53568;52.164;4.472;2023-04-25T15:22:42;10.09;54.89
66670;DHT22;53568;52.164;4.472;2023-04-25T15:25:10;10.14;54.62
66670;DHT22;53568;52.164;4.472;2023-04-25T15:27:37;10.18;55.14
66670;DHT22;53568;52.164;4.472;2023-04-25T15:30:10;10.11;55.92
66670;DHT22;53568;52.164;4.472;2023-04-25T15:32:41;9.85;57.34
66670;DHT22;53568;52.164;4.472;2023-04-25T15:35:07;9.84;58.11
66670;DHT22;53568;52.164;4.472;2023-04-25T15:37:34;9.73;56.77
66670;DHT22;53568;52.164;4.472;2023-04-25T15:42:30;9.48;55.73
66670;DHT22;53568;52.164;4.472;2023-04-25T15:44:58;9.43;53.97
66670;DHT22;53568;52.164;4.472;2023-04-25T15:47:23;9.46;54.07
66670;DHT22;53568;52.164;4.472;2023-04-25T15:49:49;9.50;54.88
66670;DHT22;53568;52.164;4.472;2023-04-25T15:52:14;9.46;55.92